Bawtry, United Kingdom
Current Conditions -  °F | °C
As of 5:20 AM on Sunday 21 Dec 2014 (Local Time) from EGCN Reporting Station
Overcast Overcast  
Wind Chill: 40°   Ceiling: 2700
Heat Index: 46°   Visibility: 6mi
Dew Point: 39°   Wind: 14mph
Humidity: 76%   Direction: 220°SW
Pressure: 30.24"   Gusts: NA
Location:  53.43°N, 1.02°W
Report Text: EGCN 210520Z 22012KT 9999 BKN027 BKN033 OVC039 08/04 Q1024
Loading
Personal Weather Stations






























Interactive Weather Map New forecast layout! Learn more

10-Day Weather Forecast

Advertisements
Track Severe Weather on mobile